To NAV CANADA Home Page Login to a new session Search on AWWS site Feedback and Comments Disclaimer Vers la page française équivalente Tips FAQ What's new on the site To the Forecasts and Observations / NOTAM section To "File a Flight Plan" website Publications and other links Update of the User's profile FIC Telephone Numbers My Weather Data Folder Route Weather Data Regional Weather Data Local Weather Data To the Forecasts and Observations / NOTAM section
Request Generated 04/30/2017 at 20:31:09 UTC . Weather information available at that time is displayed.

METAR/TAF

LLOYDMINSTER/AB    (show WxCam)

METAR CYLL 302000Z CCA 11008KT 15SM FEW040TCU BKN090 OVC250 12/02
A2978 RMK TCU2ACC4CI2 VIRGA SLP105 DENSITY ALT 2500FT=
METAR CYLL 302000Z 11008KT 15SM FEW040TCU BKN090 OVC250 12/02 A2978
RMK TCU2ACC4CI2 SLP105 DENSITY ALT 2500FT=
METAR CYLL 301900Z 13011KT 15SM FEW027 BKN075 OVC250 11/04 A2978 RMK
CU2AC4CS2 VIRGA SLP108 DENSITY ALT 2400FT=
METAR CYLL 301800Z 10012KT 15SM FEW028 SCT120 BKN230 10/04 A2979 RMK
CU1AC2CI4 SLP111 DENSITY ALT 2200FT=

TAF CYLL 301751Z 3018/0106 11012KT P6SM FEW025 SCT090
FM302100 10010KT P6SM SCT040 BKN070 TEMPO 3021/0101 P6SM -SHRA
BKN040
FM010100 VRB03KT P6SM -SHRA SCT015 OVC030 TEMPO 0101/0106 5SM
-SHRA BR SCT006 BKN015 OVC030
BECMG 0104/0106 33010KT
RMK NXT FCST BY 010000Z=
Your time UTC time
Weather data provided by Environment Canada and NAV CANADA